sensor_id;sensor_type;location;lat;lon;timestamp;pressure;altitude;pressure_sealevel;temperature;humidity
76054;BME280;64752;48.870;9.082;2022-12-11T00:02:18;97553.31;;;-5.10;98.24
76054;BME280;64752;48.870;9.082;2022-12-11T00:04:43;97546.66;;;-4.58;98.00
76054;BME280;64752;48.870;9.082;2022-12-11T00:07:08;97545.94;;;-3.96;98.68
76054;BME280;64752;48.870;9.082;2022-12-11T00:09:34;97543.31;;;-4.02;98.39
76054;BME280;64752;48.870;9.082;2022-12-11T00:11:59;97537.44;;;-3.99;98.34
76054;BME280;64752;48.870;9.082;2022-12-11T00:14:27;97547.94;;;-3.73;98.47
76054;BME280;64752;48.870;9.082;2022-12-11T00:16:52;97543.53;;;-3.90;98.02
76054;BME280;64752;48.870;9.082;2022-12-11T00:19:17;97551.09;;;-3.91;98.08
76054;BME280;64752;48.870;9.082;2022-12-11T00:21:43;97544.00;;;-4.12;98.38
76054;BME280;64752;48.870;9.082;2022-12-11T00:24:08;97545.75;;;-4.08;98.52
76054;BME280;64752;48.870;9.082;2022-12-11T00:26:33;97543.34;;;-3.99;98.01
76054;BME280;64752;48.870;9.082;2022-12-11T00:28:59;97547.03;;;-3.77;98.09
76054;BME280;64752;48.870;9.082;2022-12-11T00:31:24;97539.50;;;-3.74;97.94
76054;BME280;64752;48.870;9.082;2022-12-11T00:33:50;97548.06;;;-3.64;97.87
76054;BME280;64752;48.870;9.082;2022-12-11T00:36:20;97545.59;;;-3.61;98.15
76054;BME280;64752;48.870;9.082;2022-12-11T00:38:46;97553.31;;;-3.52;97.88
76054;BME280;64752;48.870;9.082;2022-12-11T00:41:13;97550.88;;;-3.42;97.95
76054;BME280;64752;48.870;9.082;2022-12-11T00:43:39;97552.66;;;-3.37;97.55
76054;BME280;64752;48.870;9.082;2022-12-11T00:46:04;97544.34;;;-3.26;97.62
76054;BME280;64752;48.870;9.082;2022-12-11T00:48:30;97541.03;;;-3.21;97.42
76054;BME280;64752;48.870;9.082;2022-12-11T00:50:55;97541.16;;;-3.10;97.34
76054;BME280;64752;48.870;9.082;2022-12-11T00:53:21;97542.00;;;-3.08;97.32
76054;BME280;64752;48.870;9.082;2022-12-11T00:55:46;97541.22;;;-3.02;96.99
76054;BME280;64752;48.870;9.082;2022-12-11T00:58:12;97536.22;;;-2.98;96.58
76054;BME280;64752;48.870;9.082;2022-12-11T01:00:39;97537.84;;;-3.03;96.78
76054;BME280;64752;48.870;9.082;2022-12-11T01:03:05;97552.22;;;-3.00;96.86
76054;BME280;64752;48.870;9.082;2022-12-11T01:05:31;97553.13;;;-2.95;96.57
76054;BME280;64752;48.870;9.082;2022-12-11T01:07:56;97554.94;;;-2.86;96.48
76054;BME280;64752;48.870;9.082;2022-12-11T01:10:22;97560.78;;;-2.91;96.73
76054;BME280;64752;48.870;9.082;2022-12-11T01:15:19;97571.19;;;-2.67;96.26
76054;BME280;64752;48.870;9.082;2022-12-11T01:17:45;97571.31;;;-2.52;96.11
76054;BME280;64752;48.870;9.082;2022-12-11T01:20:11;97571.25;;;-2.60;95.65
76054;BME280;64752;48.870;9.082;2022-12-11T01:22:37;97571.25;;;-2.61;95.15
76054;BME280;64752;48.870;9.082;2022-12-11T01:25:03;97568.69;;;-2.61;95.06
76054;BME280;64752;48.870;9.082;2022-12-11T01:27:29;97572.97;;;-2.59;95.02
76054;BME280;64752;48.870;9.082;2022-12-11T01:29:55;97578.16;;;-2.48;94.67
76054;BME280;64752;48.870;9.082;2022-12-11T01:32:20;97571.31;;;-2.52;94.79
76054;BME280;64752;48.870;9.082;2022-12-11T01:34:45;97567.97;;;-2.49;94.99
76054;BME280;64752;48.870;9.082;2022-12-11T01:37:11;97573.88;;;-2.54;94.97
76054;BME280;64752;48.870;9.082;2022-12-11T01:39:36;97570.34;;;-2.65;94.49
76054;BME280;64752;48.870;9.082;2022-12-11T01:42:03;97570.25;;;-2.77;95.28
76054;BME280;64752;48.870;9.082;2022-12-11T01:46:53;97570.09;;;-2.89;95.16
76054;BME280;64752;48.870;9.082;2022-12-11T01:49:21;97577.59;;;-3.00;94.42
76054;BME280;64752;48.870;9.082;2022-12-11T01:51:53;97580.88;;;-3.11;94.93
76054;BME280;64752;48.870;9.082;2022-12-11T01:54:22;97584.16;;;-3.16;95.29
76054;BME280;64752;48.870;9.082;2022-12-11T01:56:51;97587.53;;;-3.19;95.66
76054;BME280;64752;48.870;9.082;2022-12-11T01:59:20;97591.78;;;-3.18;95.33
76054;BME280;64752;48.870;9.082;2022-12-11T02:01:58;97589.06;;;-3.30;95.28
76054;BME280;64752;48.870;9.082;2022-12-11T02:04:25;97584.56;;;-3.51;95.74
76054;BME280;64752;48.870;9.082;2022-12-11T02:06:52;97595.53;;;-3.52;96.04
76054;BME280;64752;48.870;9.082;2022-12-11T02:09:22;97594.78;;;-3.45;96.15
76054;BME280;64752;48.870;9.082;2022-12-11T02:20:07;97591.66;;;-3.25;95.86
76054;BME280;64752;48.870;9.082;2022-12-11T02:31:19;97580.88;;;-3.73;96.51
76054;BME280;64752;48.870;9.082;2022-12-11T02:36:12;97583.03;;;-3.41;97.36
76054;BME280;64752;48.870;9.082;2022-12-11T02:38:42;97585.53;;;-3.43;97.44
76054;BME280;64752;48.870;9.082;2022-12-11T02:41:11;97581.41;;;-3.36;97.58
76054;BME280;64752;48.870;9.082;2022-12-11T02:43:37;97588.03;;;-3.44;97.23
76054;BME280;64752;48.870;9.082;2022-12-11T02:46:05;97584.63;;;-3.46;97.07
76054;BME280;64752;48.870;9.082;2022-12-11T02:48:33;97581.34;;;-3.39;97.09
76054;BME280;64752;48.870;9.082;2022-12-11T02:51:00;97587.34;;;-3.31;97.00
76054;BME280;64752;48.870;9.082;2022-12-11T02:53:30;97584.06;;;-3.27;97.30
76054;BME280;64752;48.870;9.082;2022-12-11T02:56:02;97588.25;;;-3.27;96.99
76054;BME280;64752;48.870;9.082;2022-12-11T02:58:32;97587.47;;;-3.23;96.73
76054;BME280;64752;48.870;9.082;2022-12-11T03:00:58;97588.34;;;-3.21;96.71
76054;BME280;64752;48.870;9.082;2022-12-11T03:03:23;97582.50;;;-3.16;96.80
76054;BME280;64752;48.870;9.082;2022-12-11T03:05:49;97584.28;;;-3.08;96.65
76054;BME280;64752;48.870;9.082;2022-12-11T03:08:14;97582.75;;;-2.93;96.31
76054;BME280;64752;48.870;9.082;2022-12-11T03:10:41;97580.19;;;-2.94;96.45
76054;BME280;64752;48.870;9.082;2022-12-11T03:13:07;97576.78;;;-2.96;96.05
76054;BME280;64752;48.870;9.082;2022-12-11T03:18:30;97572.41;;;-3.11;95.49
76054;BME280;64752;48.870;9.082;2022-12-11T03:21:10;97584.38;;;-3.01;95.66
76054;BME280;64752;48.870;9.082;2022-12-11T03:26:14;97581.88;;;-2.95;95.71
76054;BME280;64752;48.870;9.082;2022-12-11T03:31:26;97577.63;;;-2.99;96.54
76054;BME280;64752;48.870;9.082;2022-12-11T03:33:55;97583.53;;;-2.98;96.45
76054;BME280;64752;48.870;9.082;2022-12-11T03:36:34;97582.75;;;-2.93;96.43
76054;BME280;64752;48.870;9.082;2022-12-11T03:39:15;97581.81;;;-3.01;96.15
76054;BME280;64752;48.870;9.082;2022-12-11T03:41:44;97569.38;;;-2.78;96.33
76054;BME280;64752;48.870;9.082;2022-12-11T03:44:11;97572.00;;;-2.72;95.94
76054;BME280;64752;48.870;9.082;2022-12-11T03:46:38;97573.59;;;-2.78;95.52
76054;BME280;64752;48.870;9.082;2022-12-11T03:49:08;97571.13;;;-2.74;95.41
76054;BME280;64752;48.870;9.082;2022-12-11T03:51:35;97573.75;;;-2.64;95.50
76054;BME280;64752;48.870;9.082;2022-12-11T03:54:01;97573.72;;;-2.67;94.82
76054;BME280;64752;48.870;9.082;2022-12-11T03:56:29;97576.22;;;-2.71;94.08
76054;BME280;64752;48.870;9.082;2022-12-11T03:58:55;97566.06;;;-2.71;94.08
76054;BME280;64752;48.870;9.082;2022-12-11T04:01:21;97563.53;;;-2.74;93.61
76054;BME280;64752;48.870;9.082;2022-12-11T04:03:46;97562.66;;;-2.74;94.49
76054;BME280;64752;48.870;9.082;2022-12-11T04:06:15;97561.00;;;-2.74;94.12
76054;BME280;64752;48.870;9.082;2022-12-11T04:08:40;97557.66;;;-2.68;94.08
76054;BME280;64752;48.870;9.082;2022-12-11T04:11:05;97567.78;;;-2.69;94.02
76054;BME280;64752;48.870;9.082;2022-12-11T04:13:49;97565.22;;;-2.73;93.48
76054;BME280;64752;48.870;9.082;2022-12-11T04:16:34;97557.59;;;-2.73;92.92
76054;BME280;64752;48.870;9.082;2022-12-11T04:19:00;97555.91;;;-2.71;93.47
76054;BME280;64752;48.870;9.082;2022-12-11T04:21:44;97550.84;;;-2.71;93.48
76054;BME280;64752;48.870;9.082;2022-12-11T04:24:28;97548.41;;;-2.63;93.48
76054;BME280;64752;48.870;9.082;2022-12-11T04:26:53;97534.94;;;-2.54;93.24
76054;BME280;64752;48.870;9.082;2022-12-11T04:29:18;97539.09;;;-2.59;92.14
76054;BME280;64752;48.870;9.082;2022-12-11T04:31:44;97532.41;;;-2.53;92.55
76054;BME280;64752;48.870;9.082;2022-12-11T04:34:10;97534.03;;;-2.61;91.68
76054;BME280;64752;48.870;9.082;2022-12-11T04:36:36;97529.84;;;-2.57;91.81
76054;BME280;64752;48.870;9.082;2022-12-11T04:39:03;97522.22;;;-2.56;91.56
76054;BME280;64752;48.870;9.082;2022-12-11T04:41:28;97522.25;;;-2.53;91.43
76054;BME280;64752;48.870;9.082;2022-12-11T04:43:54;97524.81;;;-2.51;90.77
76054;BME280;64752;48.870;9.082;2022-12-11T04:46:21;97524.00;;;-2.47;91.16
76054;BME280;64752;48.870;9.082;2022-12-11T04:48:48;97524.81;;;-2.51;90.44
76054;BME280;64752;48.870;9.082;2022-12-11T04:51:13;97524.84;;;-2.46;90.65
76054;BME280;64752;48.870;9.082;2022-12-11T04:53:39;97526.50;;;-2.50;90.46
76054;BME280;64752;48.870;9.082;2022-12-11T04:56:10;97534.06;;;-2.58;90.24
76054;BME280;64752;48.870;9.082;2022-12-11T04:58:36;97542.47;;;-2.63;90.82
76054;BME280;64752;48.870;9.082;2022-12-11T05:01:14;97541.66;;;-2.61;90.95
76054;BME280;64752;48.870;9.082;2022-12-11T05:03:39;97528.13;;;-2.60;91.35
76054;BME280;64752;48.870;9.082;2022-12-11T05:06:05;97523.13;;;-2.50;90.67
76054;BME280;64752;48.870;9.082;2022-12-11T05:08:33;97529.03;;;-2.50;91.22
76054;BME280;64752;48.870;9.082;2022-12-11T05:11:01;97539.00;;;-2.72;90.11
76054;BME280;64752;48.870;9.082;2022-12-11T05:13:27;97543.16;;;-2.80;90.70
76054;BME280;64752;48.870;9.082;2022-12-11T05:15:53;97548.16;;;-2.87;90.90
76054;BME280;64752;48.870;9.082;2022-12-11T05:18:22;97541.38;;;-2.90;91.22
76054;BME280;64752;48.870;9.082;2022-12-11T05:20:59;97547.13;;;-3.02;90.90
76054;BME280;64752;48.870;9.082;2022-12-11T05:23:25;97548.00;;;-3.00;91.32
76054;BME280;64752;48.870;9.082;2022-12-11T05:25:55;97538.41;;;-3.28;91.60
76054;BME280;64752;48.870;9.082;2022-12-11T05:28:22;97541.34;;;-3.60;91.92
76054;BME280;64752;48.870;9.082;2022-12-11T05:30:57;97539.38;;;-3.83;92.15
76054;BME280;64752;48.870;9.082;2022-12-11T05:33:23;97540.50;;;-3.62;92.95
76054;BME280;64752;48.870;9.082;2022-12-11T05:35:49;97546.25;;;-3.74;92.75
76054;BME280;64752;48.870;9.082;2022-12-11T05:38:14;97547.56;;;-3.99;93.26
76054;BME280;64752;48.870;9.082;2022-12-11T05:40:40;97543.16;;;-4.13;93.47
76054;BME280;64752;48.870;9.082;2022-12-11T05:43:06;97541.72;;;-3.95;93.81
76054;BME280;64752;48.870;9.082;2022-12-11T05:45:31;97541.59;;;-4.04;94.51
76054;BME280;64752;48.870;9.082;2022-12-11T05:47:56;97539.06;;;-4.06;95.22
76054;BME280;64752;48.870;9.082;2022-12-11T05:50:21;97538.91;;;-4.14;95.35
76054;BME280;64752;48.870;9.082;2022-12-11T05:52:47;97535.41;;;-4.23;95.73
76054;BME280;64752;48.870;9.082;2022-12-11T05:55:12;97536.00;;;-4.38;96.37
76054;BME280;64752;48.870;9.082;2022-12-11T05:57:38;97526.53;;;-4.52;96.39
76054;BME280;64752;48.870;9.082;2022-12-11T06:00:05;97526.41;;;-4.59;96.49
76054;BME280;64752;48.870;9.082;2022-12-11T06:02:33;97526.75;;;-4.36;96.61
76054;BME280;64752;48.870;9.082;2022-12-11T06:04:59;97521.88;;;-4.26;96.85
76054;BME280;64752;48.870;9.082;2022-12-11T06:07:24;97517.50;;;-4.37;97.09
76054;BME280;64752;48.870;9.082;2022-12-11T06:09:50;97521.63;;;-4.42;97.18
76054;BME280;64752;48.870;9.082;2022-12-11T06:12:15;97524.13;;;-4.44;97.58
76054;BME280;64752;48.870;9.082;2022-12-11T06:14:40;97518.78;;;-4.61;97.44
76054;BME280;64752;48.870;9.082;2022-12-11T06:17:06;97519.38;;;-4.24;97.91
76054;BME280;64752;48.870;9.082;2022-12-11T06:19:31;97515.34;;;-4.11;97.77
76054;BME280;64752;48.870;9.082;2022-12-11T06:21:56;97519.16;;;-4.36;97.13
76054;BME280;64752;48.870;9.082;2022-12-11T06:24:22;97512.34;;;-4.42;97.72
76054;BME280;64752;48.870;9.082;2022-12-11T06:26:48;97511.69;;;-4.29;97.71
76054;BME280;64752;48.870;9.082;2022-12-11T06:29:13;97513.34;;;-4.31;97.93
76054;BME280;64752;48.870;9.082;2022-12-11T06:31:38;97514.06;;;-4.39;97.85
76054;BME280;64752;48.870;9.082;2022-12-11T06:34:04;97512.28;;;-4.47;97.89
76054;BME280;64752;48.870;9.082;2022-12-11T06:36:30;97512.00;;;-4.62;97.69
76054;BME280;64752;48.870;9.082;2022-12-11T06:38:55;97507.69;;;-4.68;97.86
76054;BME280;64752;48.870;9.082;2022-12-11T06:41:20;97509.53;;;-4.59;98.08
76054;BME280;64752;48.870;9.082;2022-12-11T06:43:46;97525.31;;;-4.74;97.85
76054;BME280;64752;48.870;9.082;2022-12-11T06:46:14;97521.28;;;-4.62;97.84
76054;BME280;64752;48.870;9.082;2022-12-11T06:48:41;97523.22;;;-4.48;97.73
76054;BME280;64752;48.870;9.082;2022-12-11T06:51:12;97524.25;;;-4.35;98.11
76054;BME280;64752;48.870;9.082;2022-12-11T06:53:38;97520.38;;;-4.13;98.11
76054;BME280;64752;48.870;9.082;2022-12-11T06:56:06;97523.78;;;-4.11;98.17
76054;BME280;64752;48.870;9.082;2022-12-11T06:58:33;97526.22;;;-4.18;98.02
76054;BME280;64752;48.870;9.082;2022-12-11T07:00:59;97538.13;;;-4.11;98.31
76054;BME280;64752;48.870;9.082;2022-12-11T07:03:26;97536.69;;;-3.94;98.43
76054;BME280;64752;48.870;9.082;2022-12-11T07:05:51;97546.66;;;-4.06;98.51
76054;BME280;64752;48.870;9.082;2022-12-11T07:08:17;97541.66;;;-4.00;98.13
76054;BME280;64752;48.870;9.082;2022-12-11T07:10:42;97540.28;;;-3.78;98.16
76054;BME280;64752;48.870;9.082;2022-12-11T07:13:07;97543.16;;;-3.52;98.25
76054;BME280;64752;48.870;9.082;2022-12-11T07:15:33;97550.66;;;-3.61;98.15
76054;BME280;64752;48.870;9.082;2022-12-11T07:17:58;97546.66;;;-3.43;98.08
76054;BME280;64752;48.870;9.082;2022-12-11T07:20:23;97539.84;;;-3.47;97.87
76054;BME280;64752;48.870;9.082;2022-12-11T07:22:49;97538.41;;;-3.28;97.81
76054;BME280;64752;48.870;9.082;2022-12-11T07:25:14;97535.91;;;-3.24;97.92
76054;BME280;64752;48.870;9.082;2022-12-11T07:27:40;97539.22;;;-3.30;97.85
76054;BME280;64752;48.870;9.082;2022-12-11T07:30:06;97542.66;;;-3.26;97.63
76054;BME280;64752;48.870;9.082;2022-12-11T07:32:32;97547.78;;;-3.20;97.39
76054;BME280;64752;48.870;9.082;2022-12-11T07:34:57;97550.69;;;-2.86;97.22
76054;BME280;64752;48.870;9.082;2022-12-11T07:37:23;97550.66;;;-2.89;97.35
76054;BME280;64752;48.870;9.082;2022-12-11T07:39:49;97545.38;;;-3.09;96.25
76054;BME280;64752;48.870;9.082;2022-12-11T07:42:14;97545.53;;;-2.95;96.35
76054;BME280;64752;48.870;9.082;2022-12-11T07:44:40;97539.84;;;-2.71;96.84
76054;BME280;64752;48.870;9.082;2022-12-11T07:47:05;97541.47;;;-2.81;95.99
76054;BME280;64752;48.870;9.082;2022-12-11T07:49:30;97543.13;;;-2.83;95.70
76054;BME280;64752;48.870;9.082;2022-12-11T07:51:56;97549.19;;;-2.68;94.76
76054;BME280;64752;48.870;9.082;2022-12-11T07:54:22;97544.88;;;-2.74;95.10
76054;BME280;64752;48.870;9.082;2022-12-11T07:56:47;97546.63;;;-2.72;95.39
76054;BME280;64752;48.870;9.082;2022-12-11T07:59:15;97529.84;;;-2.56;94.74
76054;BME280;64752;48.870;9.082;2022-12-11T08:01:41;97539.09;;;-2.59;94.84
76054;BME280;64752;48.870;9.082;2022-12-11T08:04:08;97538.34;;;-2.50;94.94
76054;BME280;64752;48.870;9.082;2022-12-11T08:06:36;97534.13;;;-2.48;95.21
76054;BME280;64752;48.870;9.082;2022-12-11T08:09:05;97538.50;;;-2.34;94.85
76054;BME280;64752;48.870;9.082;2022-12-11T08:11:31;97533.34;;;-2.44;94.19
76054;BME280;64752;48.870;9.082;2022-12-11T08:13:57;97535.91;;;-2.40;94.52
76054;BME280;64752;48.870;9.082;2022-12-11T08:16:30;97540.16;;;-2.39;94.28
76054;BME280;64752;48.870;9.082;2022-12-11T08:18:56;97530.03;;;-2.33;94.00
76054;BME280;64752;48.870;9.082;2022-12-11T08:21:23;97537.78;;;-2.17;94.90
76054;BME280;64752;48.870;9.082;2022-12-11T08:23:50;97540.44;;;-2.02;93.63
76054;BME280;64752;48.870;9.082;2022-12-11T08:26:18;97537.06;;;-2.01;92.01
76054;BME280;64752;48.870;9.082;2022-12-11T08:28:44;97537.22;;;-1.76;92.95
76054;BME280;64752;48.870;9.082;2022-12-11T08:31:11;97534.75;;;-1.61;92.87
76054;BME280;64752;48.870;9.082;2022-12-11T08:33:37;97533.94;;;-1.57;92.84
76054;BME280;64752;48.870;9.082;2022-12-11T08:36:06;97535.63;;;-1.57;92.67
76054;BME280;64752;48.870;9.082;2022-12-11T08:38:34;97543.31;;;-1.46;92.26
76054;BME280;64752;48.870;9.082;2022-12-11T08:41:15;97536.53;;;-1.47;92.18
76054;BME280;64752;48.870;9.082;2022-12-11T08:43:41;97531.38;;;-1.63;91.73
76054;BME280;64752;48.870;9.082;2022-12-11T08:46:07;97538.06;;;-1.77;91.48
76054;BME280;64752;48.870;9.082;2022-12-11T08:48:34;97535.75;;;-1.29;93.08
76054;BME280;64752;48.870;9.082;2022-12-11T08:51:01;97542.63;;;-1.08;93.21
76054;BME280;64752;48.870;9.082;2022-12-11T08:53:29;97540.97;;;-1.00;92.54
76054;BME280;64752;48.870;9.082;2022-12-11T08:56:11;97543.38;;;-1.31;89.80
76054;BME280;64752;48.870;9.082;2022-12-11T08:58:37;97538.28;;;-1.37;89.92
76054;BME280;64752;48.870;9.082;2022-12-11T09:01:07;97540.00;;;-1.31;90.07
76054;BME280;64752;48.870;9.082;2022-12-11T09:03:34;97540.94;;;-1.09;91.18
76054;BME280;64752;48.870;9.082;2022-12-11T09:06:06;97535.84;;;-1.06;88.30
76054;BME280;64752;48.870;9.082;2022-12-11T09:08:32;97535.97;;;-0.68;93.01
76054;BME280;64752;48.870;9.082;2022-12-11T09:11:05;97531.69;;;-0.70;86.05
76054;BME280;64752;48.870;9.082;2022-12-11T09:13:31;97524.09;;;-0.36;88.91
76054;BME280;64752;48.870;9.082;2022-12-11T09:15:57;97526.66;;;-0.55;86.15
76054;BME280;64752;48.870;9.082;2022-12-11T09:18:22;97522.38;;;-0.59;85.42
76054;BME280;64752;48.870;9.082;2022-12-11T09:20:47;97524.94;;;-0.51;84.81
76054;BME280;64752;48.870;9.082;2022-12-11T09:23:13;97519.00;;;-0.58;84.37
76054;BME280;64752;48.870;9.082;2022-12-11T09:25:39;97525.81;;;-0.42;85.56
76054;BME280;64752;48.870;9.082;2022-12-11T09:28:04;97518.13;;;-0.62;84.19
76054;BME280;64752;48.870;9.082;2022-12-11T09:30:30;97522.38;;;-0.65;84.44
76054;BME280;64752;48.870;9.082;2022-12-11T09:32:55;97524.09;;;-0.50;85.76
76054;BME280;64752;48.870;9.082;2022-12-11T09:35:21;97523.25;;;-0.15;84.02
76054;BME280;64752;48.870;9.082;2022-12-11T09:37:52;97524.09;;;-0.18;86.59
76054;BME280;64752;48.870;9.082;2022-12-11T09:40:17;97523.22;;;0.18;82.23
76054;BME280;64752;48.870;9.082;2022-12-11T09:42:52;97524.84;;;0.53;82.30
76054;BME280;64752;48.870;9.082;2022-12-11T09:45:25;97528.16;;;0.69;82.40
76054;BME280;64752;48.870;9.082;2022-12-11T09:47:54;97523.03;;;0.80;82.32
76054;BME280;64752;48.870;9.082;2022-12-11T09:50:27;97524.78;;;0.69;82.16
76054;BME280;64752;48.870;9.082;2022-12-11T09:53:15;97523.94;;;0.67;78.68
76054;BME280;64752;48.870;9.082;2022-12-11T10:04:29;97512.03;;;0.67;78.27
76054;BME280;64752;48.870;9.082;2022-12-11T10:07:10;97507.00;;;0.47;76.50
76054;BME280;64752;48.870;9.082;2022-12-11T10:17:37;97507.13;;;-0.37;83.08
76054;BME280;64752;48.870;9.082;2022-12-11T10:20:33;97506.25;;;0.11;80.54
76054;BME280;64752;48.870;9.082;2022-12-11T10:23:05;97496.03;;;0.16;80.99
76054;BME280;64752;48.870;9.082;2022-12-11T10:25:35;97493.44;;;0.24;82.48
76054;BME280;64752;48.870;9.082;2022-12-11T10:28:14;97482.44;;;0.11;83.44
76054;BME280;64752;48.870;9.082;2022-12-11T10:30:58;97484.94;;;0.29;83.40
76054;BME280;64752;48.870;9.082;2022-12-11T10:36:06;97478.75;;;0.86;81.15
76054;BME280;64752;48.870;9.082;2022-12-11T10:38:38;97472.94;;;0.59;80.79
76054;BME280;64752;48.870;9.082;2022-12-11T10:41:15;97479.81;;;0.43;79.86
76054;BME280;64752;48.870;9.082;2022-12-11T10:43:47;97470.50;;;0.24;79.58
76054;BME280;64752;48.870;9.082;2022-12-11T10:46:26;97472.91;;;0.61;77.30
76054;BME280;64752;48.870;9.082;2022-12-11T10:51:23;97462.72;;;0.62;78.92
76054;BME280;64752;48.870;9.082;2022-12-11T10:53:56;97464.34;;;0.82;82.99
76054;BME280;64752;48.870;9.082;2022-12-11T10:56:28;97449.50;;;1.38;79.05
76054;BME280;64752;48.870;9.082;2022-12-11T10:58:56;97458.81;;;1.45;79.44
76054;BME280;64752;48.870;9.082;2022-12-11T11:01:26;97458.72;;;1.56;79.46
76054;BME280;64752;48.870;9.082;2022-12-11T11:06:24;97456.00;;;1.77;76.04
76054;BME280;64752;48.870;9.082;2022-12-11T11:08:52;97450.06;;;1.75;77.81
76054;BME280;64752;48.870;9.082;2022-12-11T11:13:51;97446.94;;;1.41;80.37
76054;BME280;64752;48.870;9.082;2022-12-11T11:16:20;97445.47;;;1.09;75.42
76054;BME280;64752;48.870;9.082;2022-12-11T11:18:59;97441.19;;;1.09;78.92
76054;BME280;64752;48.870;9.082;2022-12-11T11:21:25;97441.28;;;0.95;76.24
76054;BME280;64752;48.870;9.082;2022-12-11T11:23:53;97440.38;;;1.07;79.21
76054;BME280;64752;48.870;9.082;2022-12-11T11:26:19;97435.00;;;1.40;86.05
76054;BME280;64752;48.870;9.082;2022-12-11T11:28:51;97435.25;;;1.07;82.34
76054;BME280;64752;48.870;9.082;2022-12-11T11:31:20;97430.94;;;1.17;83.69
76054;BME280;64752;48.870;9.082;2022-12-11T11:33:54;97429.03;;;1.42;90.27
76054;BME280;64752;48.870;9.082;2022-12-11T11:36:23;97429.63;;;1.73;88.87
76054;BME280;64752;48.870;9.082;2022-12-11T11:44:29;97427.03;;;0.54;80.68
76054;BME280;64752;48.870;9.082;2022-12-11T11:47:01;97421.09;;;0.57;81.47
76054;BME280;64752;48.870;9.082;2022-12-11T11:49:59;97411.63;;;0.77;80.59
76054;BME280;64752;48.870;9.082;2022-12-11T11:52:35;97422.72;;;0.72;80.76
76054;BME280;64752;48.870;9.082;2022-12-11T11:55:08;97416.81;;;0.61;79.48
76054;BME280;64752;48.870;9.082;2022-12-11T11:57:42;97415.13;;;0.58;78.28
76054;BME280;64752;48.870;9.082;2022-12-11T12:00:24;97407.38;;;0.73;78.87
76054;BME280;64752;48.870;9.082;2022-12-11T12:02:55;97408.81;;;1.14;75.93
76054;BME280;64752;48.870;9.082;2022-12-11T12:05:26;97406.16;;;1.28;75.94
76054;BME280;64752;48.870;9.082;2022-12-11T12:08:15;97419.34;;;0.67;78.62
76054;BME280;64752;48.870;9.082;2022-12-11T12:15:56;97413.78;;;1.33;78.48
76054;BME280;64752;48.870;9.082;2022-12-11T12:21:36;97415.34;;;1.51;74.92
76054;BME280;64752;48.870;9.082;2022-12-11T12:26:36;97423.09;;;1.42;76.71
76054;BME280;64752;48.870;9.082;2022-12-11T12:32:07;97405.72;;;1.79;72.18
76054;BME280;64752;48.870;9.082;2022-12-11T12:35:01;97406.88;;;1.46;72.43
76054;BME280;64752;48.870;9.082;2022-12-11T12:37:44;97406.72;;;1.63;72.98
76054;BME280;64752;48.870;9.082;2022-12-11T12:40:22;97403.34;;;1.61;73.83
76054;BME280;64752;48.870;9.082;2022-12-11T12:48:43;97403.09;;;1.85;74.59
76054;BME280;64752;48.870;9.082;2022-12-11T12:51:12;97395.75;;;2.34;73.93
76054;BME280;64752;48.870;9.082;2022-12-11T12:53:43;97392.31;;;2.97;70.37
76054;BME280;64752;48.870;9.082;2022-12-11T12:56:10;97387.75;;;3.17;69.83
76054;BME280;64752;48.870;9.082;2022-12-11T12:58:44;97386.09;;;3.66;68.19
76054;BME280;64752;48.870;9.082;2022-12-11T13:01:16;97385.53;;;4.40;67.59
76054;BME280;64752;48.870;9.082;2022-12-11T13:04:25;97370.97;;;4.41;65.59
76054;BME280;64752;48.870;9.082;2022-12-11T13:06:51;97389.88;;;4.77;65.54
76054;BME280;64752;48.870;9.082;2022-12-11T13:09:26;97383.56;;;4.10;65.23
76054;BME280;64752;48.870;9.082;2022-12-11T13:11:55;97377.50;;;5.31;62.73
76054;BME280;64752;48.870;9.082;2022-12-11T13:16:51;97373.09;;;4.62;64.37
76054;BME280;64752;48.870;9.082;2022-12-11T13:19:29;97369.88;;;4.53;65.84
76054;BME280;64752;48.870;9.082;2022-12-11T13:24:57;97379.03;;;3.79;66.79
76054;BME280;64752;48.870;9.082;2022-12-11T13:32:40;97386.13;;;2.53;70.16
76054;BME280;64752;48.870;9.082;2022-12-11T13:35:14;97381.13;;;1.67;72.90
76054;BME280;64752;48.870;9.082;2022-12-11T13:37:43;97386.19;;;1.70;72.68
76054;BME280;64752;48.870;9.082;2022-12-11T13:40:18;97385.78;;;2.10;75.91
76054;BME280;64752;48.870;9.082;2022-12-11T13:45:24;97381.72;;;2.62;70.70
76054;BME280;64752;48.870;9.082;2022-12-11T13:47:51;97392.47;;;2.86;68.73
76054;BME280;64752;48.870;9.082;2022-12-11T13:50:25;97396.19;;;1.93;72.29
76054;BME280;64752;48.870;9.082;2022-12-11T13:52:54;97392.84;;;1.88;73.39
76054;BME280;64752;48.870;9.082;2022-12-11T13:55:23;97400.09;;;2.25;72.12
76054;BME280;64752;48.870;9.082;2022-12-11T13:57:49;97402.16;;;1.91;73.68
76054;BME280;64752;48.870;9.082;2022-12-11T14:00:20;97395.50;;;1.76;72.62
76054;BME280;64752;48.870;9.082;2022-12-11T14:02:46;97398.63;;;1.11;75.37
76054;BME280;64752;48.870;9.082;2022-12-11T14:05:12;97401.03;;;1.33;74.73
76054;BME280;64752;48.870;9.082;2022-12-11T14:07:49;97401.25;;;0.99;75.99
76054;BME280;64752;48.870;9.082;2022-12-11T14:10:35;97398.69;;;1.01;76.71
76054;BME280;64752;48.870;9.082;2022-12-11T14:13:11;97405.59;;;0.88;75.83
76054;BME280;64752;48.870;9.082;2022-12-11T14:15:43;97412.22;;;1.15;75.86
76054;BME280;64752;48.870;9.082;2022-12-11T14:18:14;97406.53;;;0.71;76.21
76054;BME280;64752;48.870;9.082;2022-12-11T14:20:42;97410.75;;;0.80;77.67
76054;BME280;64752;48.870;9.082;2022-12-11T14:23:22;97407.31;;;0.86;76.61
76054;BME280;64752;48.870;9.082;2022-12-11T14:28:24;97412.34;;;0.98;75.90
76054;BME280;64752;48.870;9.082;2022-12-11T14:30:53;97408.13;;;0.92;75.81
76054;BME280;64752;48.870;9.082;2022-12-11T14:33:22;97418.19;;;1.14;74.86
76054;BME280;64752;48.870;9.082;2022-12-11T14:35:49;97420.13;;;0.75;75.77
76054;BME280;64752;48.870;9.082;2022-12-11T14:38:19;97418.44;;;0.74;76.14
76054;BME280;64752;48.870;9.082;2022-12-11T14:40:52;97427.88;;;0.60;76.82
76054;BME280;64752;48.870;9.082;2022-12-11T14:43:35;97418.34;;;0.92;75.97
76054;BME280;64752;48.870;9.082;2022-12-11T14:46:16;97421.00;;;0.71;78.60
76054;BME280;64752;48.870;9.082;2022-12-11T14:48:49;97423.59;;;0.65;77.88
76054;BME280;64752;48.870;9.082;2022-12-11T14:51:18;97422.84;;;0.41;78.68
76054;BME280;64752;48.870;9.082;2022-12-11T14:53:48;97424.66;;;0.14;79.53